Time;durP1;ratioP1;P1;durP2;ratioP2;P2;SDS_P1;SDS_P2;PMS_P1;PMS_P2;Temp;Humidity;BMP_temperature;BMP_pressure;BME280_temperature;BME280_humidity;BME280_pressure;Samples;Min_cycle;Max_cycle;Signal;HPM_P1;HPM_P2
2021/05/31 00:00:26;;;;;;;6.85;3.10;;;;;;;;;;5014706;28;20046;-89
2021/05/31 00:03:11;;;;;;;10.25;4.43;;;;;;;;;;4994232;28;20037;-89
2021/05/31 00:06:19;;;;;;;7.57;3.78;;;;;;;;;;4997641;28;20125;-90
2021/05/31 00:09:07;;;;;;;7.45;3.30;;;;;;;;;;4994035;28;20136;-88
2021/05/31 00:12:25;;;;;;;;;;;;;;;;;;;;;
2021/05/31 00:25:53;;;;;;;;;;;;;;;;;;;;;
2021/05/31 00:28:49;;;;;;;5.15;2.85;;;;;;;;;;4849972;28;20026;-90
2021/05/31 00:32:02;;;;;;;5.63;3.35;;;;;;;;;;5000366;28;20079;-89
2021/05/31 00:34:48;;;;;;;5.53;3.00;;;;;;;;;;4998998;28;20029;-89
2021/05/31 00:37:33;;;;;;;4.30;3.08;;;;;;;;;;4985001;28;20033;-89
2021/05/31 00:40:36;;;;;;;6.55;3.17;;;;;;;;;;4995053;28;20026;-91
2021/05/31 00:43:29;;;;;;;4.57;3.10;;;;;;;;;;5000326;28;20025;-89
2021/05/31 00:46:14;;;;;;;6.18;3.05;;;;;;;;;;4999126;28;20030;-88
2021/05/31 00:48:59;;;;;;;4.63;3.35;;;;;;;;;;4992681;28;20026;-89
2021/05/31 00:51:44;;;;;;;5.15;3.10;;;;;;;;;;5002744;28;20112;-89
2021/05/31 00:54:30;;;;;;;4.32;2.83;;;;;;;;;;4998598;28;20042;-87
2021/05/31 00:57:17;;;;;;;6.88;2.97;;;;;;;;;;4995853;28;20081;-88
2021/05/31 01:00:04;;;;;;;6.50;3.13;;;;;;;;;;4991173;28;20443;-89
2021/05/31 01:02:49;;;;;;;9.95;3.25;;;;;;;;;;4995112;28;20317;-88
2021/05/31 01:05:35;;;;;;;6.32;3.22;;;;;;;;;;4996924;28;20079;-88
2021/05/31 01:08:26;;;;;;;5.72;3.22;;;;;;;;;;4997228;28;20366;-88
2021/05/31 01:11:13;;;;;;;4.85;2.92;;;;;;;;;;4995979;28;20022;-87
2021/05/31 01:14:20;;;;;;;4.30;2.88;;;;;;;;;;4997584;28;20030;-88
2021/05/31 01:17:10;;;;;;;6.13;3.67;;;;;;;;;;4990177;28;20116;-87
2021/05/31 01:20:02;;;;;;;6.40;3.30;;;;;;;;;;4990909;28;20021;-88
2021/05/31 01:22:48;;;;;;;6.05;2.85;;;;;;;;;;4998922;28;20029;-87
2021/05/31 01:29:08;;;;;;;5.43;3.10;;;;;;;;;;4905953;28;20065;-89
2021/05/31 01:32:11;;;;;;;5.75;3.20;;;;;;;;;;5000022;28;20030;-88
2021/05/31 01:34:58;;;;;;;4.13;2.95;;;;;;;;;;4988490;28;20474;-89
2021/05/31 01:37:44;;;;;;;5.68;3.22;;;;;;;;;;4994498;28;20060;-88
2021/05/31 01:40:30;;;;;;;6.03;3.13;;;;;;;;;;5001909;28;20025;-89
2021/05/31 01:43:16;;;;;;;6.97;3.10;;;;;;;;;;4996969;28;20492;-88
2021/05/31 01:46:02;;;;;;;6.03;2.75;;;;;;;;;;4993721;28;20029;-90
2021/05/31 01:48:48;;;;;;;4.95;2.63;;;;;;;;;;5003697;28;20029;-89
2021/05/31 01:51:35;;;;;;;6.57;3.05;;;;;;;;;;4999419;28;20022;-88
2021/05/31 01:54:21;;;;;;;6.10;3.55;;;;;;;;;;4998099;28;20034;-89
2021/05/31 02:01:42;;;;;;;4.03;2.78;;;;;;;;;;4942657;29;20074;-91
2021/05/31 02:04:39;;;;;;;5.25;3.00;;;;;;;;;;4936402;28;20031;-91
2021/05/31 02:07:42;;;;;;;7.75;2.60;;;;;;;;;;4939189;29;20051;-91
2021/05/31 02:17:03;;;;;;;;;;;;;;;;;;;;;
2021/05/31 02:23:35;;;;;;;5.45;3.03;;;;;;;;;;4967652;28;20089;-89
2021/05/31 02:26:54;;;;;;;;;;;;;;;;;;;;;
2021/05/31 02:30:09;;;;;;;6.53;2.80;;;;;;;;;;5041264;28;20270;-90
2021/05/31 02:33:18;;;;;;;5.97;2.72;;;;;;;;;;4949947;28;20056;-88
2021/05/31 02:36:17;;;;;;;6.28;3.47;;;;;;;;;;4974810;28;20119;-89
2021/05/31 02:39:03;;;;;;;5.63;3.10;;;;;;;;;;5022876;28;20038;-89
2021/05/31 02:41:50;;;;;;;9.30;2.92;;;;;;;;;;5019239;28;20076;-88
2021/05/31 02:44:49;;;;;;;5.78;2.90;;;;;;;;;;5025940;28;20022;-88
2021/05/31 02:47:50;;;;;;;5.05;2.83;;;;;;;;;;5020935;28;20033;-89
2021/05/31 02:50:41;;;;;;;6.88;3.38;;;;;;;;;;5015781;28;20021;-89
2021/05/31 02:53:50;;;;;;;6.05;3.20;;;;;;;;;;5023593;28;20056;-89
2021/05/31 02:56:35;;;;;;;6.63;3.40;;;;;;;;;;5016357;28;20048;-87
2021/05/31 02:59:23;;;;;;;4.60;2.78;;;;;;;;;;5009193;28;20044;-88
2021/05/31 03:02:09;;;;;;;7.00;3.20;;;;;;;;;;5016328;28;20021;-87
2021/05/31 03:04:54;;;;;;;5.55;2.90;;;;;;;;;;5016249;28;20036;-87
2021/05/31 03:07:40;;;;;;;5.07;3.05;;;;;;;;;;5023755;28;20464;-87
2021/05/31 03:10:29;;;;;;;5.95;3.42;;;;;;;;;;5013515;28;20021;-89
2021/05/31 03:21:02;;;;;;;;;;;;;;;;;;;;;
2021/05/31 03:34:26;;;;;;;6.82;3.30;;;;;;;;;;4762221;29;20054;-89
2021/05/31 03:37:12;;;;;;;7.25;3.03;;;;;;;;;;4765548;30;20044;-89
2021/05/31 03:40:03;;;;;;;4.90;3.25;;;;;;;;;;4922172;28;20030;-87
2021/05/31 03:42:52;;;;;;;4.85;3.30;;;;;;;;;;4977927;28;20022;-88
2021/05/31 03:45:38;;;;;;;6.75;3.00;;;;;;;;;;4960028;28;20026;-86
2021/05/31 03:48:23;;;;;;;8.82;4.75;;;;;;;;;;4988096;28;20033;-86
2021/05/31 03:51:14;;;;;;;6.00;3.10;;;;;;;;;;4980191;28;20676;-86
2021/05/31 03:54:00;;;;;;;5.75;3.38;;;;;;;;;;4984918;28;20033;-87
2021/05/31 03:56:55;;;;;;;5.93;3.10;;;;;;;;;;4990677;28;20149;-89
2021/05/31 03:59:50;;;;;;;7.20;3.53;;;;;;;;;;4980333;28;20103;-87
2021/05/31 04:03:13;;;;;;;10.98;3.20;;;;;;;;;;4981345;28;20113;-86
2021/05/31 04:06:06;;;;;;;6.18;3.30;;;;;;;;;;4983325;28;20026;-85
2021/05/31 04:12:03;;;;;;;7.25;3.08;;;;;;;;;;4975387;28;20749;-86
2021/05/31 04:14:52;;;;;;;5.97;3.60;;;;;;;;;;4964895;28;20106;-85
2021/05/31 04:17:40;;;;;;;8.25;3.10;;;;;;;;;;4973081;28;20350;-85
2021/05/31 04:23:41;;;;;;;6.55;4.00;;;;;;;;;;4993374;28;20040;-85
2021/05/31 04:26:39;;;;;;;5.07;3.40;;;;;;;;;;4996266;28;20021;-85
2021/05/31 04:29:31;;;;;;;6.47;3.45;;;;;;;;;;4992168;28;20045;-85
2021/05/31 04:32:19;;;;;;;5.53;2.97;;;;;;;;;;4995846;28;20039;-85
2021/05/31 04:35:08;;;;;;;7.95;3.92;;;;;;;;;;4992314;28;20017;-87
2021/05/31 04:37:57;;;;;;;5.03;2.95;;;;;;;;;;5001436;28;20033;-84
2021/05/31 04:40:45;;;;;;;4.63;2.85;;;;;;;;;;4992327;28;20030;-84
2021/05/31 04:43:30;;;;;;;4.25;3.03;;;;;;;;;;4996988;28;20109;-84
2021/05/31 04:46:16;;;;;;;5.05;2.88;;;;;;;;;;4994876;28;20025;-86
2021/05/31 04:49:06;;;;;;;5.70;2.95;;;;;;;;;;4997733;28;20096;-85
2021/05/31 04:51:52;;;;;;;4.65;2.80;;;;;;;;;;4992996;28;20031;-86
2021/05/31 04:54:42;;;;;;;7.53;4.25;;;;;;;;;;4998228;28;20041;-86
2021/05/31 04:57:43;;;;;;;5.60;3.33;;;;;;;;;;4995348;28;20033;-86
2021/05/31 05:00:48;;;;;;;4.40;3.10;;;;;;;;;;4990492;28;20033;-84
2021/05/31 05:03:41;;;;;;;6.30;3.53;;;;;;;;;;5003204;28;20021;-84
2021/05/31 05:06:27;;;;;;;5.70;2.92;;;;;;;;;;5003818;28;20508;-86
2021/05/31 05:09:28;;;;;;;7.07;2.75;;;;;;;;;;4984640;28;20030;-86
2021/05/31 05:12:19;;;;;;;5.97;3.30;;;;;;;;;;4997388;28;20073;-86
2021/05/31 05:15:05;;;;;;;7.63;3.55;;;;;;;;;;5010038;28;20025;-82
2021/05/31 05:17:51;;;;;;;4.95;3.45;;;;;;;;;;4981040;28;20021;-86
2021/05/31 05:20:39;;;;;;;6.60;3.40;;;;;;;;;;4995128;28;20059;-85
2021/05/31 05:23:25;;;;;;;5.60;3.15;;;;;;;;;;4996999;28;20030;-84
2021/05/31 05:26:13;;;;;;;6.78;3.38;;;;;;;;;;5007958;28;20176;-82
2021/05/31 05:29:05;;;;;;;7.32;3.35;;;;;;;;;;5010360;28;20029;-89
2021/05/31 05:31:53;;;;;;;6.97;3.08;;;;;;;;;;5001821;28;20021;-88
2021/05/31 05:34:58;;;;;;;5.30;3.22;;;;;;;;;;5000300;28;20086;-85
2021/05/31 05:41:23;;;;;;;4.88;3.13;;;;;;;;;;4904413;29;20076;-88
2021/05/31 05:50:48;;;;;;;11.82;3.65;;;;;;;;;;4928714;28;20134;-85
2021/05/31 05:53:35;;;;;;;7.55;3.35;;;;;;;;;;4979751;28;20033;-83
2021/05/31 05:56:21;;;;;;;6.15;2.80;;;;;;;;;;4995988;28;20123;-82
2021/05/31 05:59:06;;;;;;;7.50;3.20;;;;;;;;;;4994865;28;20018;-86
2021/05/31 06:01:52;;;;;;;6.72;2.97;;;;;;;;;;5002699;28;20022;-86
2021/05/31 06:04:41;;;;;;;6.00;3.85;;;;;;;;;;4999619;28;20030;-86
2021/05/31 06:07:27;;;;;;;13.30;9.35;;;;;;;;;;4994209;28;20025;-84
2021/05/31 06:10:13;;;;;;;11.18;7.30;;;;;;;;;;4998677;28;20025;-85
2021/05/31 06:12:58;;;;;;;5.30;3.03;;;;;;;;;;4988544;28;20025;-84
2021/05/31 06:15:44;;;;;;;6.97;2.88;;;;;;;;;;4997323;28;20104;-85
2021/05/31 06:18:29;;;;;;;6.25;2.85;;;;;;;;;;4995150;28;20379;-85
2021/05/31 06:21:15;;;;;;;7.72;3.72;;;;;;;;;;5002949;28;20046;-87
2021/05/31 06:24:00;;;;;;;5.53;3.30;;;;;;;;;;4989237;28;20723;-81
2021/05/31 06:26:45;;;;;;;7.85;3.00;;;;;;;;;;4990361;28;20037;-80
2021/05/31 06:29:30;;;;;;;5.20;3.20;;;;;;;;;;4987063;28;20449;-82
2021/05/31 06:32:16;;;;;;;7.97;3.55;;;;;;;;;;4992756;28;20026;-85
2021/05/31 06:38:18;;;;;;;7.60;3.60;;;;;;;;;;5010391;28;20046;-87
2021/05/31 06:41:16;;;;;;;11.63;3.60;;;;;;;;;;4985112;28;20030;-87
2021/05/31 06:44:02;;;;;;;8.30;3.10;;;;;;;;;;4980393;28;20106;-82
2021/05/31 06:46:48;;;;;;;6.22;3.38;;;;;;;;;;4999853;28;20572;-81
2021/05/31 06:49:34;;;;;;;16.08;9.50;;;;;;;;;;4985247;28;20029;-81
2021/05/31 06:52:19;;;;;;;6.40;4.13;;;;;;;;;;5006786;28;20025;-80
2021/05/31 06:55:06;;;;;;;7.32;4.10;;;;;;;;;;4994029;28;20017;-81
2021/05/31 06:57:52;;;;;;;8.48;3.65;;;;;;;;;;4975195;28;20034;-81
2021/05/31 07:00:37;;;;;;;5.95;3.55;;;;;;;;;;4985786;28;20117;-80
2021/05/31 07:03:22;;;;;;;5.15;3.13;;;;;;;;;;4974598;28;20171;-82
2021/05/31 07:06:07;;;;;;;6.38;3.17;;;;;;;;;;4995048;28;20055;-82
2021/05/31 07:08:54;;;;;;;6.60;3.53;;;;;;;;;;4995814;28;20018;-81
2021/05/31 07:11:43;;;;;;;6.57;3.05;;;;;;;;;;4986965;28;20130;-81
2021/05/31 07:14:37;;;;;;;;;;;;;;;;;;4999903;28;20124;-81
2021/05/31 07:17:22;;;;;;;5.22;2.70;;;;;;;;;;4985597;28;19921;-81
2021/05/31 07:20:10;;;;;;;3.95;2.40;;;;;;;;;;4984581;28;20164;-79
2021/05/31 07:22:55;;;;;;;7.57;4.45;;;;;;;;;;4991985;28;20080;-80
2021/05/31 07:25:40;;;;;;;5.95;3.50;;;;;;;;;;5004705;28;20112;-79
2021/05/31 07:28:26;;;;;;;2.70;2.22;;;;;;;;;;4994812;28;20457;-81
2021/05/31 07:31:11;;;;;;;5.18;2.70;;;;;;;;;;4994332;28;20035;-80
2021/05/31 07:33:56;;;;;;;6.40;2.30;;;;;;;;;;5007531;28;20112;-82
2021/05/31 07:36:41;;;;;;;3.67;2.25;;;;;;;;;;4986966;28;20023;-79
2021/05/31 07:39:27;;;;;;;4.40;2.30;;;;;;;;;;4995014;28;20116;-80
2021/05/31 07:42:12;;;;;;;3.28;2.15;;;;;;;;;;4988743;28;20013;-81
2021/05/31 07:44:57;;;;;;;5.93;2.55;;;;;;;;;;4995590;28;20089;-80
2021/05/31 07:47:42;;;;;;;4.38;2.53;;;;;;;;;;4993215;28;20383;-80
2021/05/31 07:50:28;;;;;;;2.25;1.73;;;;;;;;;;4981431;28;20105;-80
2021/05/31 07:53:19;;;;;;;8.20;2.47;;;;;;;;;;4997076;28;20125;-89
2021/05/31 07:56:05;;;;;;;6.13;1.80;;;;;;;;;;4989944;28;20081;-89
2021/05/31 07:58:50;;;;;;;11.65;2.97;;;;;;;;;;4986073;28;20478;-82
2021/05/31 08:01:35;;;;;;;7.30;4.13;;;;;;;;;;4989400;28;20026;-82
2021/05/31 08:04:21;;;;;;;3.70;2.20;;;;;;;;;;4980321;28;20250;-84
2021/05/31 08:07:09;;;;;;;3.78;2.13;;;;;;;;;;5001243;28;20032;-81
2021/05/31 08:09:55;;;;;;;5.18;1.85;;;;;;;;;;4989780;28;20040;-88
2021/05/31 08:12:40;;;;;;;3.55;2.20;;;;;;;;;;4999244;28;20041;-82
2021/05/31 08:15:25;;;;;;;6.60;2.63;;;;;;;;;;4984152;28;20030;-81
2021/05/31 08:18:11;;;;;;;2.97;1.90;;;;;;;;;;4986475;28;20473;-80
2021/05/31 08:20:56;;;;;;;4.75;2.28;;;;;;;;;;4994686;28;20108;-90
2021/05/31 08:23:42;;;;;;;2.67;1.92;;;;;;;;;;4982273;28;20041;-82
2021/05/31 08:26:27;;;;;;;4.47;1.95;;;;;;;;;;5004560;28;20131;-84
2021/05/31 08:29:12;;;;;;;7.50;2.33;;;;;;;;;;4996329;28;20035;-83
2021/05/31 08:31:58;;;;;;;6.47;2.35;;;;;;;;;;4991349;28;20515;-82
2021/05/31 08:34:43;;;;;;;2.45;1.80;;;;;;;;;;4994242;28;20038;-85
2021/05/31 08:37:28;;;;;;;3.13;2.00;;;;;;;;;;4999755;28;20064;-84
2021/05/31 08:40:14;;;;;;;4.18;3.00;;;;;;;;;;4998579;28;20340;-85
2021/05/31 08:43:00;;;;;;;15.57;8.15;;;;;;;;;;4991898;28;20036;-85
2021/05/31 08:45:45;;;;;;;8.18;3.05;;;;;;;;;;5006043;28;20030;-85
2021/05/31 08:48:31;;;;;;;4.78;2.15;;;;;;;;;;4987956;28;20028;-86
2021/05/31 08:51:21;;;;;;;6.32;3.35;;;;;;;;;;4997334;28;20038;-85
2021/05/31 08:54:07;;;;;;;2.95;2.00;;;;;;;;;;4995056;28;20029;-86
2021/05/31 08:56:52;;;;;;;5.68;2.80;;;;;;;;;;4998272;28;20719;-83
2021/05/31 08:59:37;;;;;;;10.32;2.63;;;;;;;;;;4989502;28;20018;-86
2021/05/31 09:02:23;;;;;;;6.60;2.70;;;;;;;;;;4993702;28;20030;-85
2021/05/31 09:05:09;;;;;;;9.82;3.13;;;;;;;;;;4999834;28;20502;-86
2021/05/31 09:07:54;;;;;;;3.75;2.00;;;;;;;;;;5002117;28;20025;-83
2021/05/31 09:10:47;;;;;;;3.63;1.95;;;;;;;;;;4991389;28;20049;-82
2021/05/31 09:13:41;;;;;;;8.05;2.63;;;;;;;;;;4994936;28;20025;-81
2021/05/31 09:16:27;;;;;;;12.18;3.25;;;;;;;;;;4998770;28;20112;-89
2021/05/31 09:19:12;;;;;;;10.70;2.60;;;;;;;;;;5011652;28;20033;-87
2021/05/31 09:22:02;;;;;;;5.93;2.28;;;;;;;;;;5005038;28;20092;-86
2021/05/31 09:24:56;;;;;;;4.32;2.08;;;;;;;;;;4984666;28;20064;-80
2021/05/31 09:27:49;;;;;;;4.22;2.00;;;;;;;;;;4996414;28;20026;-82
2021/05/31 09:30:38;;;;;;;2.63;1.90;;;;;;;;;;4984282;28;20381;-80
2021/05/31 09:33:23;;;;;;;3.42;1.83;;;;;;;;;;4997960;28;20026;-80
2021/05/31 09:36:09;;;;;;;4.43;1.73;;;;;;;;;;4998491;28;20034;-80
2021/05/31 09:38:54;;;;;;;4.68;1.80;;;;;;;;;;4985689;28;20023;-79
2021/05/31 09:41:39;;;;;;;7.63;2.15;;;;;;;;;;4987213;28;20394;-81
2021/05/31 09:44:27;;;;;;;6.43;2.22;;;;;;;;;;5004164;28;20064;-79
2021/05/31 09:47:13;;;;;;;3.35;1.92;;;;;;;;;;4995082;28;20250;-80
2021/05/31 09:49:58;;;;;;;2.88;2.10;;;;;;;;;;4998615;28;20029;-80
2021/05/31 09:52:43;;;;;;;4.18;1.80;;;;;;;;;;4989902;28;20022;-77
2021/05/31 09:55:47;;;;;;;2.92;1.83;;;;;;;;;;4985372;28;20022;-80
2021/05/31 09:58:32;;;;;;;6.43;2.20;;;;;;;;;;4993656;28;20135;-81
2021/05/31 10:01:41;;;;;;;5.43;1.90;;;;;;;;;;4989984;28;20171;-81
2021/05/31 10:10:17;;;;;;;4.18;2.30;;;;;;;;;;4996973;28;20033;-82
2021/05/31 10:13:02;;;;;;;3.33;1.85;;;;;;;;;;4994046;28;20044;-86
2021/05/31 10:15:48;;;;;;;3.25;2.15;;;;;;;;;;5000938;28;20025;-84
2021/05/31 10:18:37;;;;;;;2.58;1.95;;;;;;;;;;5002936;28;20017;-82
2021/05/31 10:21:24;;;;;;;3.30;2.35;;;;;;;;;;5001833;28;20104;-83
2021/05/31 10:24:09;;;;;;;2.70;2.10;;;;;;;;;;4995159;28;20480;-81
2021/05/31 10:26:55;;;;;;;2.90;2.00;;;;;;;;;;5006199;28;20033;-79
2021/05/31 10:29:44;;;;;;;4.72;2.08;;;;;;;;;;4985496;28;20085;-79
2021/05/31 10:32:29;;;;;;;7.28;4.07;;;;;;;;;;4998801;28;20067;-77
2021/05/31 10:35:15;;;;;;;4.70;2.92;;;;;;;;;;4992087;28;20544;-86
2021/05/31 10:38:01;;;;;;;4.82;2.45;;;;;;;;;;4994296;28;20358;-85
2021/05/31 10:40:47;;;;;;;2.42;1.80;;;;;;;;;;4994168;28;20053;-83
2021/05/31 10:43:41;;;;;;;2.42;1.70;;;;;;;;;;4995591;28;20037;-83
2021/05/31 10:46:28;;;;;;;3.10;2.00;;;;;;;;;;4997347;28;20064;-83
2021/05/31 10:49:19;;;;;;;6.60;4.43;;;;;;;;;;4993459;28;20120;-84
2021/05/31 10:52:05;;;;;;;10.48;8.65;;;;;;;;;;4987771;28;20022;-87
2021/05/31 10:54:50;;;;;;;3.20;2.17;;;;;;;;;;5000655;28;20116;-84
2021/05/31 10:57:35;;;;;;;2.95;2.10;;;;;;;;;;4998402;28;20559;-80
2021/05/31 11:00:24;;;;;;;6.47;2.58;;;;;;;;;;4984879;28;20077;-80
2021/05/31 11:03:12;;;;;;;4.38;2.45;;;;;;;;;;4980891;28;20121;-79
2021/05/31 11:05:57;;;;;;;6.95;2.90;;;;;;;;;;4996901;28;20033;-80
2021/05/31 11:08:47;;;;;;;3.78;2.42;;;;;;;;;;4989288;28;20020;-80
2021/05/31 11:11:37;;;;;;;4.80;2.40;;;;;;;;;;4992059;28;20026;-83
2021/05/31 11:14:32;;;;;;;5.15;2.15;;;;;;;;;;5001986;28;20033;-80
2021/05/31 11:17:18;;;;;;;3.60;1.88;;;;;;;;;;4989313;28;20030;-82
2021/05/31 11:20:11;;;;;;;3.53;2.20;;;;;;;;;;4989579;28;20121;-82
2021/05/31 11:22:58;;;;;;;4.55;2.63;;;;;;;;;;4995833;28;20065;-83
2021/05/31 11:25:47;;;;;;;7.82;1.92;;;;;;;;;;4989498;28;20036;-81
2021/05/31 11:28:32;;;;;;;3.97;2.05;;;;;;;;;;4978863;28;20388;-79
2021/05/31 11:31:19;;;;;;;2.28;1.77;;;;;;;;;;4996189;28;20037;-77
2021/05/31 11:34:05;;;;;;;6.18;1.98;;;;;;;;;;4996021;28;20105;-77
2021/05/31 11:36:50;;;;;;;3.95;2.08;;;;;;;;;;4984900;28;20022;-80
2021/05/31 11:39:35;;;;;;;3.60;2.08;;;;;;;;;;4997321;28;20033;-80
2021/05/31 11:42:21;;;;;;;3.70;1.77;;;;;;;;;;4996965;28;20021;-77
2021/05/31 11:45:07;;;;;;;4.85;2.15;;;;;;;;;;4985711;28;20117;-79
2021/05/31 11:47:53;;;;;;;3.95;2.17;;;;;;;;;;4978686;28;20100;-82
2021/05/31 11:50:41;;;;;;;3.97;2.40;;;;;;;;;;4991401;28;20668;-84
2021/05/31 11:53:26;;;;;;;3.87;2.07;;;;;;;;;;4996347;28;20400;-83
2021/05/31 11:56:12;;;;;;;4.63;2.50;;;;;;;;;;4999115;28;21035;-82
2021/05/31 11:59:00;;;;;;;4.47;2.20;;;;;;;;;;4995521;28;20030;-81
2021/05/31 12:01:55;;;;;;;3.88;2.13;;;;;;;;;;4994140;28;20080;-82
2021/05/31 12:04:47;;;;;;;2.60;1.70;;;;;;;;;;5003090;28;20136;-82
2021/05/31 12:07:40;;;;;;;5.18;1.85;;;;;;;;;;4987618;28;20029;-81
2021/05/31 12:10:26;;;;;;;3.53;2.30;;;;;;;;;;4994774;28;20058;-86
2021/05/31 12:13:12;;;;;;;4.07;2.05;;;;;;;;;;4977415;28;20084;-84
2021/05/31 12:15:57;;;;;;;3.33;2.13;;;;;;;;;;4992732;28;20040;-82
2021/05/31 12:18:43;;;;;;;4.38;1.98;;;;;;;;;;4998686;28;20026;-81
2021/05/31 12:21:39;;;;;;;3.95;2.15;;;;;;;;;;4984699;28;20038;-80
2021/05/31 12:24:28;;;;;;;3.72;2.00;;;;;;;;;;4992941;28;20236;-78
2021/05/31 12:27:13;;;;;;;3.55;1.88;;;;;;;;;;4992750;28;20022;-83
2021/05/31 12:29:59;;;;;;;3.03;2.25;;;;;;;;;;5002191;28;20042;-85
2021/05/31 12:32:44;;;;;;;3.50;2.13;;;;;;;;;;4988516;28;20037;-81
2021/05/31 12:35:30;;;;;;;3.78;2.22;;;;;;;;;;4976400;28;20030;-80
2021/05/31 12:38:20;;;;;;;4.05;2.13;;;;;;;;;;4990871;28;20429;-79
2021/05/31 12:41:05;;;;;;;4.13;2.00;;;;;;;;;;4994097;28;20038;-79
2021/05/31 12:43:50;;;;;;;4.65;2.20;;;;;;;;;;4994766;28;20037;-79
2021/05/31 12:46:42;;;;;;;2.65;1.85;;;;;;;;;;4988149;28;20041;-79
2021/05/31 12:49:30;;;;;;;3.13;1.73;;;;;;;;;;5001545;28;20034;-78
2021/05/31 12:52:23;;;;;;;2.22;1.95;;;;;;;;;;4982251;28;20037;-78
2021/05/31 12:55:10;;;;;;;2.78;1.85;;;;;;;;;;5010257;28;20026;-79
2021/05/31 12:57:56;;;;;;;3.90;1.98;;;;;;;;;;4990312;28;20034;-79
2021/05/31 13:00:42;;;;;;;2.08;1.88;;;;;;;;;;4992293;28;20014;-79
2021/05/31 13:03:31;;;;;;;3.67;2.03;;;;;;;;;;4982531;28;20638;-79
2021/05/31 13:06:16;;;;;;;2.17;1.67;;;;;;;;;;4980765;28;20072;-82
2021/05/31 13:09:05;;;;;;;3.08;1.83;;;;;;;;;;4993620;28;20116;-79
2021/05/31 13:11:52;;;;;;;4.72;2.00;;;;;;;;;;4986213;28;20030;-81
2021/05/31 13:14:42;;;;;;;3.08;2.05;;;;;;;;;;4985152;28;20040;-78
2021/05/31 13:17:29;;;;;;;6.72;2.90;;;;;;;;;;4977490;28;20030;-81
2021/05/31 13:20:14;;;;;;;3.63;2.58;;;;;;;;;;4992442;28;20116;-81
2021/05/31 13:23:00;;;;;;;3.17;2.30;;;;;;;;;;4987936;28;20049;-80
2021/05/31 13:25:46;;;;;;;3.03;2.17;;;;;;;;;;4988709;28;20056;-80
2021/05/31 13:28:35;;;;;;;4.60;2.13;;;;;;;;;;4998814;28;20428;-81
2021/05/31 13:31:21;;;;;;;4.78;1.48;;;;;;;;;;4975968;28;20069;-80
2021/05/31 13:34:07;;;;;;;4.65;1.85;;;;;;;;;;4989569;28;20384;-82
2021/05/31 13:36:52;;;;;;;2.33;1.77;;;;;;;;;;4989253;28;20096;-80
2021/05/31 13:39:50;;;;;;;2.88;1.80;;;;;;;;;;4995902;28;20026;-81
2021/05/31 13:42:46;;;;;;;6.80;1.90;;;;;;;;;;4997353;28;20136;-80
2021/05/31 13:45:39;;;;;;;4.88;3.20;;;;;;;;;;4993590;28;20038;-80
2021/05/31 13:48:25;;;;;;;6.47;2.35;;;;;;;;;;5000035;28;20033;-81
2021/05/31 13:51:10;;;;;;;9.35;5.22;;;;;;;;;;4992016;28;20022;-80
2021/05/31 13:53:56;;;;;;;4.63;2.33;;;;;;;;;;4996146;28;20021;-82
2021/05/31 13:56:41;;;;;;;6.95;2.03;;;;;;;;;;4988005;28;20033;-78
2021/05/31 13:59:26;;;;;;;3.22;2.10;;;;;;;;;;4999400;28;20029;-79
2021/05/31 14:02:11;;;;;;;5.40;1.95;;;;;;;;;;4995430;28;20156;-79
2021/05/31 14:04:57;;;;;;;3.08;2.03;;;;;;;;;;4990897;28;20104;-79
2021/05/31 14:07:42;;;;;;;3.40;2.33;;;;;;;;;;5005749;28;20068;-80
2021/05/31 14:10:31;;;;;;;4.78;2.35;;;;;;;;;;5004139;28;20028;-78
2021/05/31 14:13:16;;;;;;;3.28;1.80;;;;;;;;;;4994262;28;20088;-78
2021/05/31 14:16:02;;;;;;;3.65;2.38;;;;;;;;;;4992823;28;20026;-80
2021/05/31 14:18:47;;;;;;;3.53;2.38;;;;;;;;;;4992251;28;20025;-80
2021/05/31 14:21:32;;;;;;;8.27;2.22;;;;;;;;;;4998094;28;20053;-80
2021/05/31 14:24:17;;;;;;;3.85;2.05;;;;;;;;;;4991906;28;20057;-77
2021/05/31 14:27:05;;;;;;;5.78;1.95;;;;;;;;;;4997387;28;20037;-79
2021/05/31 14:29:50;;;;;;;4.32;2.97;;;;;;;;;;4991107;28;20038;-77
2021/05/31 14:32:36;;;;;;;4.95;1.90;;;;;;;;;;5001275;28;20523;-77
2021/05/31 14:35:21;;;;;;;4.20;2.30;;;;;;;;;;4999787;28;20024;-79
2021/05/31 14:38:06;;;;;;;2.67;1.85;;;;;;;;;;4979803;28;20017;-85
2021/05/31 14:40:57;;;;;;;5.45;2.75;;;;;;;;;;4998698;28;20438;-83
2021/05/31 14:43:43;;;;;;;7.80;4.18;;;;;;;;;;5003236;28;20339;-83
2021/05/31 14:46:28;;;;;;;6.25;2.78;;;;;;;;;;4996350;28;20095;-83
2021/05/31 14:49:13;;;;;;;4.88;2.22;;;;;;;;;;4981004;28;20357;-83
2021/05/31 14:51:59;;;;;;;3.15;2.08;;;;;;;;;;4997376;28;20488;-83
2021/05/31 14:54:46;;;;;;;4.43;2.40;;;;;;;;;;4991942;28;20490;-82
2021/05/31 14:57:31;;;;;;;3.63;2.60;;;;;;;;;;5003854;28;20490;-82
2021/05/31 15:00:18;;;;;;;3.72;2.58;;;;;;;;;;4986869;28;20026;-83
2021/05/31 15:03:04;;;;;;;4.13;2.53;;;;;;;;;;4992320;28;20738;-82
2021/05/31 15:05:49;;;;;;;3.53;2.38;;;;;;;;;;4983445;28;20476;-85
2021/05/31 15:08:35;;;;;;;4.28;2.00;;;;;;;;;;4999005;28;20455;-84
2021/05/31 15:11:21;;;;;;;3.10;2.42;;;;;;;;;;4990243;28;20034;-83
2021/05/31 15:14:06;;;;;;;2.28;2.08;;;;;;;;;;5000652;28;20040;-84
2021/05/31 15:16:51;;;;;;;7.63;2.67;;;;;;;;;;4994647;28;20097;-85
2021/05/31 15:19:40;;;;;;;8.32;2.47;;;;;;;;;;4995789;28;20129;-84
2021/05/31 15:22:26;;;;;;;3.90;2.13;;;;;;;;;;4981117;28;20141;-83
2021/05/31 15:25:11;;;;;;;6.03;4.85;;;;;;;;;;4984782;28;20450;-84
2021/05/31 15:27:57;;;;;;;8.13;4.72;;;;;;;;;;4995028;28;20519;-84
2021/05/31 15:30:42;;;;;;;5.57;2.53;;;;;;;;;;4985011;28;20531;-84
2021/05/31 15:33:27;;;;;;;4.15;2.88;;;;;;;;;;5001638;28;20087;-82
2021/05/31 15:36:12;;;;;;;4.68;2.83;;;;;;;;;;4992768;28;20104;-84
2021/05/31 15:38:58;;;;;;;4.38;2.40;;;;;;;;;;4994453;28;20037;-84
2021/05/31 15:41:43;;;;;;;2.45;1.85;;;;;;;;;;5005063;28;20021;-84
2021/05/31 15:44:29;;;;;;;3.47;2.42;;;;;;;;;;4989650;28;20037;-84
2021/05/31 15:47:15;;;;;;;3.25;2.13;;;;;;;;;;4995185;28;20045;-83
2021/05/31 15:50:00;;;;;;;5.35;2.67;;;;;;;;;;4996994;28;20056;-84
2021/05/31 15:52:46;;;;;;;6.82;2.58;;;;;;;;;;4993337;28;20033;-85
2021/05/31 15:55:31;;;;;;;4.90;2.53;;;;;;;;;;4996869;28;20029;-84
2021/05/31 15:58:16;;;;;;;6.00;2.53;;;;;;;;;;4996303;28;20032;-83
2021/05/31 16:01:03;;;;;;;5.22;2.78;;;;;;;;;;4996707;28;20471;-83
2021/05/31 16:03:48;;;;;;;6.45;2.60;;;;;;;;;;4984058;28;20022;-83
2021/05/31 16:06:33;;;;;;;6.45;2.33;;;;;;;;;;4991144;28;20022;-83
2021/05/31 16:09:19;;;;;;;3.38;2.47;;;;;;;;;;5004003;28;20031;-83
2021/05/31 16:12:04;;;;;;;4.88;2.20;;;;;;;;;;4990456;28;20022;-83
2021/05/31 16:14:49;;;;;;;4.43;2.20;;;;;;;;;;4994579;28;20440;-84
2021/05/31 16:17:34;;;;;;;3.20;2.35;;;;;;;;;;5004919;28;20036;-83
2021/05/31 16:20:19;;;;;;;4.60;2.60;;;;;;;;;;4985516;28;20703;-83
2021/05/31 16:23:28;;;;;;;4.38;2.30;;;;;;;;;;4995804;28;20025;-83
2021/05/31 16:26:10;;;;;;;5.75;2.40;;;;;;;;;;4997060;28;20026;-84
2021/05/31 16:28:56;;;;;;;3.83;2.58;;;;;;;;;;4986934;28;20049;-84
2021/05/31 16:31:41;;;;;;;5.10;2.25;;;;;;;;;;5000097;28;20109;-84
2021/05/31 16:34:26;;;;;;;3.72;2.30;;;;;;;;;;4995857;28;20030;-83
2021/05/31 16:37:11;;;;;;;17.45;14.75;;;;;;;;;;4985985;28;20044;-83
2021/05/31 16:39:58;;;;;;;4.78;3.08;;;;;;;;;;4987506;28;20058;-83
2021/05/31 16:42:48;;;;;;;3.53;2.50;;;;;;;;;;4994241;28;20013;-83
2021/05/31 16:45:34;;;;;;;3.30;1.88;;;;;;;;;;4990096;28;20511;-83
2021/05/31 16:48:20;;;;;;;4.25;2.08;;;;;;;;;;4994185;28;20618;-82
2021/05/31 16:51:14;;;;;;;6.00;3.00;;;;;;;;;;4987420;28;20137;-83
2021/05/31 16:53:59;;;;;;;3.45;2.20;;;;;;;;;;4997596;28;20111;-84
2021/05/31 16:56:45;;;;;;;2.97;2.50;;;;;;;;;;4997394;28;20140;-83
2021/05/31 16:59:30;;;;;;;3.50;2.03;;;;;;;;;;4995692;28;20029;-84
2021/05/31 17:02:15;;;;;;;4.75;2.28;;;;;;;;;;4982581;28;20029;-84
2021/05/31 17:05:01;;;;;;;5.53;2.75;;;;;;;;;;4992596;28;20476;-84
2021/05/31 17:07:57;;;;;;;6.35;3.80;;;;;;;;;;4985151;28;20030;-80
2021/05/31 17:19:49;;;;;;;3.70;2.30;;;;;;;;;;4999652;28;20423;-84
2021/05/31 17:22:34;;;;;;;4.25;2.42;;;;;;;;;;4993506;28;20052;-84
2021/05/31 17:25:20;;;;;;;5.07;2.10;;;;;;;;;;4989767;28;20029;-84
2021/05/31 17:28:05;;;;;;;3.17;2.20;;;;;;;;;;4991741;28;20079;-85
2021/05/31 17:31:02;;;;;;;5.07;2.30;;;;;;;;;;4993682;28;20030;-84
2021/05/31 17:33:50;;;;;;;3.53;2.05;;;;;;;;;;4987492;28;20125;-84
2021/05/31 17:36:35;;;;;;;6.22;2.20;;;;;;;;;;4984617;28;20030;-84
2021/05/31 17:39:21;;;;;;;5.65;2.50;;;;;;;;;;4976869;28;20026;-84
2021/05/31 17:42:06;;;;;;;3.60;2.00;;;;;;;;;;4991142;28;20497;-85
2021/05/31 17:44:51;;;;;;;4.45;2.72;;;;;;;;;;4996314;28;20122;-85
2021/05/31 17:47:37;;;;;;;3.28;2.42;;;;;;;;;;4991346;28;20495;-85
2021/05/31 17:50:22;;;;;;;3.22;2.42;;;;;;;;;;4977020;28;20049;-84
2021/05/31 17:53:08;;;;;;;2.95;2.25;;;;;;;;;;4989876;28;20061;-83
2021/05/31 17:55:53;;;;;;;6.10;3.50;;;;;;;;;;4977957;28;20029;-84
2021/05/31 17:58:38;;;;;;;4.93;2.05;;;;;;;;;;4994231;28;20017;-83
2021/05/31 18:01:23;;;;;;;5.95;2.40;;;;;;;;;;4996445;28;20030;-84
2021/05/31 18:04:09;;;;;;;5.97;2.50;;;;;;;;;;4992873;28;20384;-83
2021/05/31 18:06:54;;;;;;;4.28;2.45;;;;;;;;;;4993093;28;20057;-83
2021/05/31 18:09:39;;;;;;;3.83;2.17;;;;;;;;;;4989834;28;20025;-84
2021/05/31 18:12:25;;;;;;;5.22;3.10;;;;;;;;;;4993005;28;20472;-83
2021/05/31 18:15:11;;;;;;;7.70;2.65;;;;;;;;;;4982225;28;20030;-82